Time;durP1;ratioP1;P1;durP2;ratioP2;P2;SDS_P1;SDS_P2;PMS_P1;PMS_P2;Temp;Humidity;BMP_temperature;BMP_pressure;BME280_temperature;BME280_humidity;BME280_pressure;Samples;Min_cycle;Max_cycle;Signal;HPM_P1;HPM_P2
2023/03/09 00:03:15;;;;;;;1.60;1.33;;;;;;;16.66;42.01;98968.16;19869077;29;20066;-92
2023/03/09 00:13:18;;;;;;;1.50;1.30;;;;;;;16.76;41.88;98984.03;19907477;29;20496;-91
2023/03/09 00:23:20;;;;;;;1.17;1.08;;;;;;;16.76;41.75;98987.56;19955999;29;20469;-92
2023/03/09 00:33:21;;;;;;;1.20;1.10;;;;;;;16.75;41.95;98999.34;19942079;29;20599;-92
2023/03/09 00:43:23;;;;;;;1.25;1.05;;;;;;;16.61;41.78;98974.03;19941586;29;20088;-91
2023/03/09 00:53:24;;;;;;;1.10;1.00;;;;;;;16.74;41.90;99008.41;19941068;29;20069;-92
2023/03/09 01:03:26;;;;;;;1.80;1.17;;;;;;;16.61;41.83;98979.41;19940079;29;20070;-92
2023/03/09 01:13:28;;;;;;;1.33;1.08;;;;;;;16.74;42.05;98981.53;19925233;29;20644;-90
2023/03/09 01:23:30;;;;;;;1.27;1.10;;;;;;;16.27;42.04;98908.03;19937402;29;20512;-92
2023/03/09 01:33:31;;;;;;;1.05;0.98;;;;;;;16.41;42.04;98929.81;19936968;29;20145;-92
2023/03/09 01:43:39;;;;;;;0.90;0.90;;;;;;;16.75;42.02;98982.34;19938061;29;20141;-92
2023/03/09 01:53:41;;;;;;;1.20;1.10;;;;;;;16.74;41.83;98992.28;19951036;29;20058;-92
2023/03/09 02:03:46;;;;;;;1.45;1.00;;;;;;;16.74;42.18;98986.06;19935054;29;20058;-92
2023/03/09 02:13:50;;;;;;;1.25;1.00;;;;;;;16.73;42.16;98995.13;19953935;29;20064;-91
2023/03/09 02:24:00;;;;;;;0.95;0.90;;;;;;;16.73;41.95;98998.66;19934127;29;20412;-90
2023/03/09 02:34:02;;;;;;;0.95;0.85;;;;;;;16.73;42.13;99013.94;19934483;29;20050;-91
2023/03/09 02:44:04;;;;;;;0.90;0.90;;;;;;;16.73;42.13;98997.81;19932848;29;20067;-91
2023/03/09 02:54:07;;;;;;;0.88;0.85;;;;;;;16.72;42.28;99033.75;19947313;29;20078;-92
2023/03/09 03:04:09;;;;;;;1.70;1.08;;;;;;;16.72;42.13;99053.41;19926684;29;20108;-91
2023/03/09 03:14:11;;;;;;;1.10;1.00;;;;;;;16.50;42.11;99031.66;19871507;29;20065;-91
2023/03/09 03:24:13;;;;;;;1.17;0.90;;;;;;;16.63;42.20;99066.03;19857438;29;20066;-91
2023/03/09 03:34:14;;;;;;;0.85;0.77;;;;;;;16.73;42.18;99078.44;19886016;29;20569;-91
2023/03/09 03:44:19;;;;;;;0.90;0.90;;;;;;;16.72;42.14;99099.09;19909096;29;20058;-90
2023/03/09 03:54:21;;;;;;;0.90;0.90;;;;;;;16.60;42.20;99079.81;19898629;29;20050;-90
2023/03/09 04:04:24;;;;;;;0.88;0.70;;;;;;;16.71;42.06;99091.19;19905019;29;20073;-91
2023/03/09 04:14:32;;;;;;;1.17;0.93;;;;;;;16.71;42.10;99132.38;19867032;29;20062;-91
2023/03/09 04:24:36;;;;;;;0.85;0.85;;;;;;;16.72;42.25;99134.03;19867213;29;20709;-91
2023/03/09 04:34:37;;;;;;;1.08;0.98;;;;;;;16.44;42.01;99093.31;19866071;29;20064;-91
2023/03/09 04:44:43;;;;;;;0.80;0.80;;;;;;;16.57;42.22;99144.63;19866855;29;20110;-91
2023/03/09 04:54:46;;;;;;;1.17;1.00;;;;;;;16.36;42.11;99099.50;19878745;29;20119;-91
2023/03/09 05:04:48;;;;;;;1.42;1.20;;;;;;;16.71;42.11;99156.53;19871028;29;20063;-91
2023/03/09 05:14:50;;;;;;;0.98;0.98;;;;;;;16.71;42.19;99166.44;19878258;29;20508;-91
2023/03/09 05:24:56;;;;;;;1.10;1.00;;;;;;;16.71;42.09;99169.97;19878249;29;20059;-91
2023/03/09 05:34:58;;;;;;;1.27;1.02;;;;;;;16.70;42.12;99183.56;19862859;29;20051;-91
2023/03/09 05:45:02;;;;;;;1.10;1.00;;;;;;;16.72;42.23;99208.41;19861590;29;20445;-91
2023/03/09 05:55:04;;;;;;;1.70;1.23;;;;;;;16.70;42.23;99200.53;19859914;29;20055;-91
2023/03/09 06:05:07;;;;;;;1.20;1.10;;;;;;;16.70;42.40;99234.63;19881966;29;20504;-91
2023/03/09 06:15:10;;;;;;;1.35;1.00;;;;;;;16.70;42.12;99266.88;19934662;29;20127;-91
2023/03/09 06:25:14;;;;;;;1.30;1.20;;;;;;;16.18;42.29;99191.84;19964446;29;20129;-91
2023/03/09 06:35:16;;;;;;;0.98;0.98;;;;;;;16.69;42.44;99271.41;19964162;29;20073;-92
2023/03/09 06:45:20;;;;;;;1.48;1.38;;;;;;;16.61;42.27;99268.75;19897359;29;20057;-92
2023/03/09 06:55:22;;;;;;;5.07;1.02;;;;;;;16.73;42.66;99280.81;19898023;29;20064;-88
2023/03/09 07:05:29;;;;;;;1.45;1.20;;;;;;;16.74;42.58;99289.72;19868508;29;20054;-88
2023/03/09 07:15:31;;;;;;;1.08;1.00;;;;;;;16.72;42.54;99297.94;21459249;24;20119;-89
2023/03/09 07:25:34;;;;;;;1.50;1.40;;;;;;;16.73;42.68;99323.81;20249499;29;20486;-90
2023/03/09 07:35:38;;;;;;;1.42;1.33;;;;;;;16.72;42.59;99332.88;20233712;29;20060;-92
2023/03/09 07:45:40;;;;;;;2.58;0.98;;;;;;;16.74;43.77;99344.31;20188621;29;20060;-91
2023/03/09 07:55:41;;;;;;;1.15;1.05;;;;;;;16.94;44.19;99374.38;20205013;29;20061;-89
2023/03/09 08:05:43;;;;;;;1.10;1.00;;;;;;;16.92;44.19;99376.41;20185891;29;20103;-91
2023/03/09 08:15:45;;;;;;;1.77;1.50;;;;;;;17.11;44.23;99406.69;20207536;29;20060;-91
2023/03/09 08:25:53;;;;;;;1.25;0.90;;;;;;;16.84;44.05;99370.19;20229890;29;20048;-92
2023/03/09 08:35:54;;;;;;;1.63;1.15;;;;;;;17.19;44.08;99438.94;20244301;29;20052;-91
2023/03/09 08:45:57;;;;;;;1.63;1.10;;;;;;;17.22;44.10;99454.75;20216710;29;20052;-95
2023/03/09 08:56:02;;;;;;;1.77;1.30;;;;;;;17.23;44.10;99467.22;20224635;29;20059;-91
2023/03/09 09:06:06;;;;;;;1.23;1.13;;;;;;;17.27;43.91;99480.31;20205442;29;20052;-92
2023/03/09 09:16:09;;;;;;;1.30;1.20;;;;;;;17.16;44.28;99455.41;20217583;29;20053;-94
2023/03/09 09:26:11;;;;;;;1.40;1.30;;;;;;;17.29;44.18;99481.00;20233003;29;20063;-92
2023/03/09 09:36:15;;;;;;;1.40;1.30;;;;;;;17.20;43.96;99483.66;20222438;29;21022;-92
2023/03/09 09:46:18;;;;;;;1.90;1.50;;;;;;;17.31;43.79;99479.81;20234634;29;20478;-89
2023/03/09 09:56:22;;;;;;;1.08;1.00;;;;;;;17.32;43.90;99497.63;20235047;29;20517;-94
2023/03/09 10:06:24;;;;;;;1.80;1.30;;;;;;;17.34;43.97;99500.16;20213597;29;20063;-89
2023/03/09 10:16:30;;;;;;;1.40;1.20;;;;;;;17.24;43.77;99505.69;20173101;29;20402;-93
2023/03/09 10:26:39;;;;;;;;;;;;;;;17.37;43.92;99534.81;20202441;29;20510;-91
2023/03/09 10:36:47;;;;;;;1.80;1.58;;;;;;;17.18;43.69;99504.50;20208366;29;19975;-95
2023/03/09 10:46:56;;;;;;;1.63;1.52;;;;;;;17.37;43.76;99540.19;20209074;29;20161;-93
2023/03/09 10:56:58;;;;;;;2.15;1.63;;;;;;;17.37;43.79;99548.25;20232177;29;20057;-92
2023/03/09 11:07:01;;;;;;;1.60;1.50;;;;;;;17.38;43.77;99547.25;20255844;29;20133;-93
2023/03/09 11:17:02;;;;;;;1.85;1.67;;;;;;;17.38;43.74;99531.09;20252196;29;20505;-94
2023/03/09 11:27:18;;;;;;;1.90;1.70;;;;;;;17.40;43.59;99545.22;20221893;29;20073;-94
2023/03/09 11:37:41;;;;;;;1.60;1.50;;;;;;;17.19;43.74;99521.50;20225592;29;20063;-92
2023/03/09 11:47:44;;;;;;;1.63;1.52;;;;;;;17.09;43.53;99483.97;20207556;29;20053;-93
2023/03/09 11:57:48;;;;;;;1.67;1.58;;;;;;;17.40;43.60;99543.34;20242668;29;20067;-81
2023/03/09 12:08:19;;;;;;;1.70;1.60;;;;;;;17.42;43.52;99551.28;20237908;29;20421;-92
2023/03/09 12:18:26;;;;;;;2.10;2.00;;;;;;;17.43;43.57;99544.03;20269934;29;20060;-94
2023/03/09 12:28:28;;;;;;;1.77;1.67;;;;;;;17.31;43.52;99516.63;20262682;29;20618;-91
2023/03/09 12:38:29;;;;;;;2.10;2.00;;;;;;;17.42;43.49;99529.75;20232621;29;20065;-92
2023/03/09 12:48:32;;;;;;;1.88;1.77;;;;;;;17.42;43.29;99529.75;20240880;29;20490;-81
2023/03/09 12:58:37;;;;;;;2.28;2.10;;;;;;;17.42;43.39;99521.69;20203218;29;20063;-81
2023/03/09 13:08:40;;;;;;;2.43;2.23;;;;;;;17.42;43.60;99516.31;20205616;29;20459;-82
2023/03/09 13:18:41;;;;;;;2.60;2.40;;;;;;;17.31;43.69;99503.19;20185117;29;20160;-82
2023/03/09 13:28:46;;;;;;;2.60;2.40;;;;;;;17.23;43.88;99494.09;20157389;29;20068;-82
2023/03/09 13:38:51;;;;;;;3.00;2.70;;;;;;;17.34;43.79;99510.94;20166550;29;20115;-84
2023/03/09 13:48:56;;;;;;;2.35;2.15;;;;;;;17.24;43.75;99484.19;20896691;23;20190;-84
2023/03/09 13:58:58;;;;;;;2.27;2.07;;;;;;;17.45;43.82;99504.34;20213163;29;20068;-82
2023/03/09 14:09:13;;;;;;;2.22;2.03;;;;;;;17.46;43.97;99498.00;20128723;29;20200;-95
2023/03/09 14:19:30;;;;;;;2.70;2.50;;;;;;;17.45;43.96;99497.13;20126677;29;20053;-94
2023/03/09 14:29:32;;;;;;;2.42;2.17;;;;;;;17.45;43.81;99491.75;20132420;29;20117;-95
2023/03/09 14:39:37;;;;;;;2.50;2.30;;;;;;;17.45;43.96;99461.31;20167672;29;20060;-92
2023/03/09 14:49:41;;;;;;;2.35;2.15;;;;;;;17.45;44.01;99453.22;20117171;29;20065;-93
2023/03/09 14:59:44;;;;;;;2.10;1.90;;;;;;;17.27;43.96;99407.72;20088589;29;20399;-93
2023/03/09 15:09:45;;;;;;;2.65;2.45;;;;;;;17.45;44.01;99431.72;20114553;29;20057;-94
2023/03/09 15:19:48;;;;;;;2.40;2.20;;;;;;;17.07;43.99;99386.50;20053069;29;20054;-95
2023/03/09 15:29:49;;;;;;;2.20;2.00;;;;;;;17.24;44.33;99409.72;20056992;29;20083;-90
2023/03/09 15:39:51;;;;;;;2.45;2.22;;;;;;;17.39;44.17;99438.63;20040821;29;20156;-90
2023/03/09 15:49:52;;;;;;;2.47;2.28;;;;;;;17.30;44.27;99440.47;20070397;29;20545;-92
2023/03/09 15:59:58;;;;;;;2.47;2.28;;;;;;;17.24;44.29;99431.25;20059747;29;20076;-93
2023/03/09 16:09:59;;;;;;;2.50;2.30;;;;;;;17.19;44.33;99422.81;20084305;29;20050;-91
2023/03/09 16:20:01;;;;;;;2.67;2.47;;;;;;;17.16;44.50;99438.47;20081366;29;20057;-88
2023/03/09 16:30:03;;;;;;;2.60;2.40;;;;;;;16.86;44.55;99377.06;20081737;29;20129;-88
2023/03/09 16:40:05;;;;;;;2.50;2.30;;;;;;;16.85;44.47;99378.09;20083995;29;20118;-94
2023/03/09 16:50:11;;;;;;;2.80;2.15;;;;;;;17.08;44.75;99405.19;20070588;29;20069;-93
2023/03/09 17:00:13;;;;;;;2.83;2.60;;;;;;;17.06;44.81;99387.53;20059887;29;20077;-91
2023/03/09 17:10:17;;;;;;;2.40;2.20;;;;;;;17.05;44.81;99378.63;20043865;29;20063;-91
2023/03/09 17:20:18;;;;;;;2.70;2.50;;;;;;;17.03;45.27;99374.41;20032809;29;20499;-91
2023/03/09 17:30:22;;;;;;;2.55;2.35;;;;;;;17.03;45.27;99377.97;20031039;29;20088;-88
2023/03/09 17:40:33;;;;;;;2.53;2.25;;;;;;;17.02;44.90;99387.03;20026025;29;20069;-86
2023/03/09 17:50:35;;;;;;;2.30;2.10;;;;;;;17.01;45.11;99377.25;20051913;29;20152;-87
2023/03/09 18:00:37;;;;;;;2.45;2.20;;;;;;;17.01;45.00;99388.00;20048367;29;20403;-88
2023/03/09 18:10:42;;;;;;;2.88;2.40;;;;;;;17.00;45.08;99374.75;20022654;29;20072;-87
2023/03/09 18:20:43;;;;;;;3.00;2.73;;;;;;;16.98;45.15;99355.28;20032141;29;20136;-90
2023/03/09 18:30:46;;;;;;;3.10;2.38;;;;;;;16.87;45.15;99308.03;20059848;29;20097;-90
2023/03/09 18:40:48;;;;;;;2.95;2.42;;;;;;;16.96;45.03;99310.53;20054096;29;20053;-92
2023/03/09 18:50:53;;;;;;;2.50;2.30;;;;;;;16.96;45.14;99299.78;20063603;29;20632;-91
2023/03/09 19:00:55;;;;;;;3.95;2.00;;;;;;;16.95;44.91;99276.59;20046704;29;20068;-90
2023/03/09 19:10:57;;;;;;;1.85;1.70;;;;;;;16.63;45.08;99232.63;20060550;29;20073;-89
2023/03/09 19:20:58;;;;;;;2.10;1.90;;;;;;;16.94;45.09;99258.81;20071978;29;20062;-90
2023/03/09 19:31:08;;;;;;;2.33;2.13;;;;;;;16.92;44.93;99233.94;20084097;29;20061;-91
2023/03/09 19:41:12;;;;;;;2.00;1.90;;;;;;;16.92;45.13;99215.13;20093299;29;20057;-93
2023/03/09 19:51:19;;;;;;;2.22;2.03;;;;;;;16.91;44.84;99194.63;20088543;29;20061;-91
2023/03/09 20:01:24;;;;;;;2.00;1.83;;;;;;;16.91;44.81;99183.03;20104852;29;20694;-89
2023/03/09 20:11:25;;;;;;;1.70;1.60;;;;;;;16.90;44.62;99155.31;20106831;29;20110;-91
2023/03/09 20:21:27;;;;;;;1.92;1.80;;;;;;;16.89;44.63;99134.84;20111169;29;20054;-90
2023/03/09 20:31:35;;;;;;;2.20;2.00;;;;;;;16.89;44.75;99110.66;20103862;29;20067;-91
2023/03/09 20:41:38;;;;;;;2.00;1.80;;;;;;;16.89;44.89;99121.41;20154570;29;20060;-93
2023/03/09 20:51:40;;;;;;;2.25;2.05;;;;;;;16.89;44.72;99104.41;20182554;29;20068;-93
2023/03/09 21:01:43;;;;;;;2.00;1.90;;;;;;;16.73;44.68;99068.53;20163796;29;20417;-94
2023/03/09 21:11:45;;;;;;;2.30;1.77;;;;;;;16.88;44.75;99067.78;20179264;29;20144;-95
2023/03/09 21:21:46;;;;;;;1.85;1.75;;;;;;;16.87;44.41;99058.91;20092768;29;20065;-94
2023/03/09 21:31:48;;;;;;;1.70;1.60;;;;;;;16.87;44.60;99047.31;20114042;29;20057;-94
2023/03/09 21:41:49;;;;;;;1.95;1.75;;;;;;;16.86;44.29;99014.25;20145919;29;20515;-95
2023/03/09 21:51:51;;;;;;;1.92;1.83;;;;;;;16.75;44.46;98968.91;20142727;29;20050;-94
2023/03/09 22:01:52;;;;;;;1.63;1.52;;;;;;;16.85;44.49;98958.81;20150973;29;20571;-94
2023/03/09 22:11:55;;;;;;;1.73;1.63;;;;;;;16.78;44.39;98920.19;20176575;29;20100;-95
2023/03/09 22:21:56;;;;;;;1.60;1.50;;;;;;;16.85;44.35;98901.53;20157969;29;20067;-94
2023/03/09 22:31:58;;;;;;;1.63;1.52;;;;;;;16.76;44.39;98860.41;20131766;29;20049;-94
2023/03/09 22:41:59;;;;;;;1.80;1.65;;;;;;;16.76;44.35;98833.56;20126638;29;20057;-92
2023/03/09 22:52:01;;;;;;;1.90;1.80;;;;;;;16.65;44.15;98792.66;20161527;29;20065;-92
2023/03/09 23:02:02;;;;;;;1.48;1.38;;;;;;;16.82;44.20;98806.00;20156186;29;20049;-91
2023/03/09 23:12:04;;;;;;;1.52;1.42;;;;;;;16.59;44.21;98738.84;20229032;29;20041;-90
2023/03/09 23:22:06;;;;;;;1.55;1.42;;;;;;;16.74;44.31;98746.91;20244733;29;20053;-86
2023/03/09 23:32:07;;;;;;;1.50;1.40;;;;;;;16.56;44.03;98702.41;20244618;29;20052;-85
2023/03/09 23:42:09;;;;;;;1.63;1.50;;;;;;;16.80;44.02;98714.78;20238027;29;20060;-91
2023/03/09 23:52:10;;;;;;;1.50;1.40;;;;;;;16.79;44.23;98702.38;20238155;29;20049;-90
